sensor_id;sensor_type;location;lat;lon;timestamp;pressure;altitude;pressure_sealevel;temperature;humidity
10135;BME280;5107;48.850;8.924;2024-03-02T00:02:12;95570.66;;;6.75;82.50
10135;BME280;5107;48.850;8.924;2024-03-02T00:04:37;95573.16;;;6.68;82.65
10135;BME280;5107;48.850;8.924;2024-03-02T00:07:03;95576.25;;;6.64;83.30
10135;BME280;5107;48.850;8.924;2024-03-02T00:09:29;95583.13;;;6.65;83.13
10135;BME280;5107;48.850;8.924;2024-03-02T00:11:54;95575.44;;;6.63;82.98
10135;BME280;5107;48.850;8.924;2024-03-02T00:14:20;95582.63;;;6.69;82.99
10135;BME280;5107;48.850;8.924;2024-03-02T00:16:46;95578.19;;;6.70;82.89
10135;BME280;5107;48.850;8.924;2024-03-02T00:19:11;95574.78;;;6.69;82.79
10135;BME280;5107;48.850;8.924;2024-03-02T00:21:37;95573.59;;;6.72;82.89
10135;BME280;5107;48.850;8.924;2024-03-02T00:26:45;95581.25;;;6.73;82.63
10135;BME280;5107;48.850;8.924;2024-03-02T00:29:13;95569.72;;;6.68;82.66
10135;BME280;5107;48.850;8.924;2024-03-02T00:31:40;95570.22;;;6.63;83.20
10135;BME280;5107;48.850;8.924;2024-03-02T00:34:06;95568.47;;;6.56;83.04
10135;BME280;5107;48.850;8.924;2024-03-02T00:36:31;95571.25;;;6.54;83.53
10135;BME280;5107;48.850;8.924;2024-03-02T00:38:57;95568.19;;;6.51;84.11
10135;BME280;5107;48.850;8.924;2024-03-02T00:41:27;95575.91;;;6.44;84.21
10135;BME280;5107;48.850;8.924;2024-03-02T00:43:59;95569.88;;;6.43;84.46
10135;BME280;5107;48.850;8.924;2024-03-02T00:46:27;95570.03;;;6.42;84.48
10135;BME280;5107;48.850;8.924;2024-03-02T00:49:03;95584.91;;;6.41;84.37
10135;BME280;5107;48.850;8.924;2024-03-02T00:51:33;95571.03;;;6.41;84.67
10135;BME280;5107;48.850;8.924;2024-03-02T00:54:01;95567.59;;;6.40;84.26
10135;BME280;5107;48.850;8.924;2024-03-02T00:56:29;95563.53;;;6.38;84.60
10135;BME280;5107;48.850;8.924;2024-03-02T00:58:55;95569.56;;;6.38;84.67
10135;BME280;5107;48.850;8.924;2024-03-02T01:01:20;95567.31;;;6.35;84.95
10135;BME280;5107;48.850;8.924;2024-03-02T01:03:45;95580.88;;;6.31;85.02
10135;BME280;5107;48.850;8.924;2024-03-02T01:06:11;95574.84;;;6.30;84.88
10135;BME280;5107;48.850;8.924;2024-03-02T01:08:37;95573.03;;;6.31;84.58
10135;BME280;5107;48.850;8.924;2024-03-02T01:11:03;95573.56;;;6.26;85.07
10135;BME280;5107;48.850;8.924;2024-03-02T01:13:29;95585.69;;;6.19;85.50
10135;BME280;5107;48.850;8.924;2024-03-02T01:15:54;95577.53;;;6.14;85.80
10135;BME280;5107;48.850;8.924;2024-03-02T01:18:20;95575.59;;;6.08;85.79
10135;BME280;5107;48.850;8.924;2024-03-02T01:20:45;95575.59;;;6.08;86.17
10135;BME280;5107;48.850;8.924;2024-03-02T01:23:10;95575.78;;;6.06;86.08
10135;BME280;5107;48.850;8.924;2024-03-02T01:25:36;95570.56;;;6.06;86.02
10135;BME280;5107;48.850;8.924;2024-03-02T01:28:01;95567.81;;;6.00;86.32
10135;BME280;5107;48.850;8.924;2024-03-02T01:30:27;95567.16;;;5.98;86.29
10135;BME280;5107;48.850;8.924;2024-03-02T01:32:52;95558.06;;;5.94;86.71
10135;BME280;5107;48.850;8.924;2024-03-02T01:35:18;95556.75;;;5.90;87.25
10135;BME280;5107;48.850;8.924;2024-03-02T01:37:43;95558.56;;;5.89;86.81
10135;BME280;5107;48.850;8.924;2024-03-02T01:40:09;95560.66;;;5.86;87.14
10135;BME280;5107;48.850;8.924;2024-03-02T01:42:38;95558.38;;;5.83;87.01
10135;BME280;5107;48.850;8.924;2024-03-02T01:45:08;95552.50;;;5.81;86.98
10135;BME280;5107;48.850;8.924;2024-03-02T01:47:34;95556.75;;;5.82;87.20
10135;BME280;5107;48.850;8.924;2024-03-02T01:50:00;95558.72;;;5.80;87.41
10135;BME280;5107;48.850;8.924;2024-03-02T01:52:26;95552.84;;;5.78;87.70
10135;BME280;5107;48.850;8.924;2024-03-02T01:54:52;95556.78;;;5.73;87.31
10135;BME280;5107;48.850;8.924;2024-03-02T01:57:17;95552.91;;;5.61;87.59
10135;BME280;5107;48.850;8.924;2024-03-02T01:59:43;95553.25;;;5.58;87.96
10135;BME280;5107;48.850;8.924;2024-03-02T02:02:08;95550.16;;;5.55;88.74
10135;BME280;5107;48.850;8.924;2024-03-02T02:04:34;95556.72;;;5.51;88.88
10135;BME280;5107;48.850;8.924;2024-03-02T02:06:59;95554.91;;;5.51;89.12
10135;BME280;5107;48.850;8.924;2024-03-02T02:09:25;95550.97;;;5.55;88.95
10135;BME280;5107;48.850;8.924;2024-03-02T02:11:51;95551.63;;;5.57;88.64
10135;BME280;5107;48.850;8.924;2024-03-02T02:14:16;95547.38;;;5.56;89.13
10135;BME280;5107;48.850;8.924;2024-03-02T02:16:42;95540.22;;;5.58;88.85
10135;BME280;5107;48.850;8.924;2024-03-02T02:19:07;95542.16;;;5.56;88.93
10135;BME280;5107;48.850;8.924;2024-03-02T02:21:33;95544.47;;;5.51;88.78
10135;BME280;5107;48.850;8.924;2024-03-02T02:23:58;95555.41;;;5.47;88.79
10135;BME280;5107;48.850;8.924;2024-03-02T02:26:24;95549.72;;;5.43;89.14
10135;BME280;5107;48.850;8.924;2024-03-02T02:28:50;95538.63;;;5.41;89.06
10135;BME280;5107;48.850;8.924;2024-03-02T02:31:15;95539.59;;;5.40;89.52
10135;BME280;5107;48.850;8.924;2024-03-02T02:33:41;95539.78;;;5.39;90.06
10135;BME280;5107;48.850;8.924;2024-03-02T02:36:06;95537.16;;;5.39;90.00
10135;BME280;5107;48.850;8.924;2024-03-02T02:38:33;95540.91;;;5.36;89.65
10135;BME280;5107;48.850;8.924;2024-03-02T02:41:00;95534.09;;;5.35;89.98
10135;BME280;5107;48.850;8.924;2024-03-02T02:43:25;95527.25;;;5.34;89.93
10135;BME280;5107;48.850;8.924;2024-03-02T02:45:50;95531.47;;;5.35;89.69
10135;BME280;5107;48.850;8.924;2024-03-02T02:48:16;95524.63;;;5.34;89.98
10135;BME280;5107;48.850;8.924;2024-03-02T02:50:41;95527.72;;;5.29;90.51
10135;BME280;5107;48.850;8.924;2024-03-02T02:53:06;95531.50;;;5.27;89.61
10135;BME280;5107;48.850;8.924;2024-03-02T02:55:34;95539.16;;;5.20;90.06
10135;BME280;5107;48.850;8.924;2024-03-02T02:58:00;95534.91;;;5.19;90.69
10135;BME280;5107;48.850;8.924;2024-03-02T03:00:25;95524.69;;;5.18;90.52
10135;BME280;5107;48.850;8.924;2024-03-02T03:02:51;95537.38;;;5.13;90.63
10135;BME280;5107;48.850;8.924;2024-03-02T03:05:16;95533.50;;;5.09;90.77
10135;BME280;5107;48.850;8.924;2024-03-02T03:07:42;95531.19;;;5.06;91.17
10135;BME280;5107;48.850;8.924;2024-03-02T03:10:09;95529.56;;;5.05;91.35
10135;BME280;5107;48.850;8.924;2024-03-02T03:12:35;95530.38;;;5.05;91.72
10135;BME280;5107;48.850;8.924;2024-03-02T03:15:01;95534.63;;;5.06;91.35
10135;BME280;5107;48.850;8.924;2024-03-02T03:17:26;95536.56;;;5.04;91.40
10135;BME280;5107;48.850;8.924;2024-03-02T03:19:52;95537.88;;;5.08;91.58
10135;BME280;5107;48.850;8.924;2024-03-02T03:22:18;95532.66;;;5.08;91.19
10135;BME280;5107;48.850;8.924;2024-03-02T03:24:43;95530.72;;;5.10;91.50
10135;BME280;5107;48.850;8.924;2024-03-02T03:27:10;95536.09;;;5.09;91.38
10135;BME280;5107;48.850;8.924;2024-03-02T03:29:36;95533.16;;;5.04;91.49
10135;BME280;5107;48.850;8.924;2024-03-02T03:32:02;95527.31;;;5.02;91.87
10135;BME280;5107;48.850;8.924;2024-03-02T03:34:27;95532.34;;;5.03;91.95
10135;BME280;5107;48.850;8.924;2024-03-02T03:36:54;95542.44;;;5.06;91.91
10135;BME280;5107;48.850;8.924;2024-03-02T03:39:19;95533.16;;;5.04;91.83
10135;BME280;5107;48.850;8.924;2024-03-02T03:41:45;95529.91;;;5.02;91.42
10135;BME280;5107;48.850;8.924;2024-03-02T03:44:10;95537.09;;;5.00;91.70
10135;BME280;5107;48.850;8.924;2024-03-02T03:46:35;95535.13;;;5.02;92.00
10135;BME280;5107;48.850;8.924;2024-03-02T03:49:01;95527.63;;;4.99;91.96
10135;BME280;5107;48.850;8.924;2024-03-02T03:51:26;95527.47;;;5.00;91.74
10135;BME280;5107;48.850;8.924;2024-03-02T03:53:51;95521.91;;;5.03;92.17
10135;BME280;5107;48.850;8.924;2024-03-02T03:56:16;95529.25;;;5.08;91.87
10135;BME280;5107;48.850;8.924;2024-03-02T03:58:42;95527.63;;;5.07;91.22
10135;BME280;5107;48.850;8.924;2024-03-02T04:01:07;95523.22;;;5.07;91.85
10135;BME280;5107;48.850;8.924;2024-03-02T04:03:33;95525.50;;;5.10;91.76
10135;BME280;5107;48.850;8.924;2024-03-02T04:05:58;95527.94;;;5.12;91.14
10135;BME280;5107;48.850;8.924;2024-03-02T04:08:24;95530.22;;;5.15;91.41
10135;BME280;5107;48.850;8.924;2024-03-02T04:10:49;95530.53;;;5.12;90.95
10135;BME280;5107;48.850;8.924;2024-03-02T04:13:14;95533.50;;;5.01;91.04
10135;BME280;5107;48.850;8.924;2024-03-02T04:15:40;95525.50;;;4.94;92.18
10135;BME280;5107;48.850;8.924;2024-03-02T04:18:06;95528.63;;;4.89;92.51
10135;BME280;5107;48.850;8.924;2024-03-02T04:20:31;95543.28;;;4.90;92.68
10135;BME280;5107;48.850;8.924;2024-03-02T04:22:56;95533.81;;;4.89;92.77
10135;BME280;5107;48.850;8.924;2024-03-02T04:25:22;95541.66;;;4.89;93.23
10135;BME280;5107;48.850;8.924;2024-03-02T04:27:47;95535.63;;;4.89;93.30
10135;BME280;5107;48.850;8.924;2024-03-02T04:30:12;95532.03;;;4.90;92.88
10135;BME280;5107;48.850;8.924;2024-03-02T04:32:38;95530.91;;;4.92;93.23
10135;BME280;5107;48.850;8.924;2024-03-02T04:35:04;95529.94;;;4.93;92.97
10135;BME280;5107;48.850;8.924;2024-03-02T04:37:31;95524.06;;;4.91;92.76
10135;BME280;5107;48.850;8.924;2024-03-02T04:39:57;95529.75;;;4.95;93.07
10135;BME280;5107;48.850;8.924;2024-03-02T04:42:22;95524.72;;;4.93;92.92
10135;BME280;5107;48.850;8.924;2024-03-02T04:44:48;95525.69;;;4.92;92.91
10135;BME280;5107;48.850;8.924;2024-03-02T04:47:13;95529.44;;;4.90;92.21
10135;BME280;5107;48.850;8.924;2024-03-02T04:49:38;95528.63;;;4.81;92.50
10135;BME280;5107;48.850;8.924;2024-03-02T04:52:04;95532.50;;;4.77;93.25
10135;BME280;5107;48.850;8.924;2024-03-02T04:54:29;95526.34;;;4.78;93.29
10135;BME280;5107;48.850;8.924;2024-03-02T04:56:54;95527.00;;;4.80;93.64
10135;BME280;5107;48.850;8.924;2024-03-02T04:59:20;95524.69;;;4.85;93.54
10135;BME280;5107;48.850;8.924;2024-03-02T05:01:45;95528.47;;;4.91;92.67
10135;BME280;5107;48.850;8.924;2024-03-02T05:04:12;95527.31;;;4.93;92.29
10135;BME280;5107;48.850;8.924;2024-03-02T05:06:38;95526.50;;;4.93;91.76
10135;BME280;5107;48.850;8.924;2024-03-02T05:09:05;95530.91;;;4.92;92.50
10135;BME280;5107;48.850;8.924;2024-03-02T05:11:31;95527.31;;;4.93;91.95
10135;BME280;5107;48.850;8.924;2024-03-02T05:14:05;95533.81;;;4.97;92.13
10135;BME280;5107;48.850;8.924;2024-03-02T05:16:35;95527.13;;;4.95;92.27
10135;BME280;5107;48.850;8.924;2024-03-02T05:19:00;95533.00;;;4.97;92.01
10135;BME280;5107;48.850;8.924;2024-03-02T05:21:26;95531.88;;;5.00;92.32
10135;BME280;5107;48.850;8.924;2024-03-02T05:23:51;95539.03;;;4.97;92.27
10135;BME280;5107;48.850;8.924;2024-03-02T05:26:16;95534.78;;;4.96;91.84
10135;BME280;5107;48.850;8.924;2024-03-02T05:28:42;95539.03;;;4.97;91.83
10135;BME280;5107;48.850;8.924;2024-03-02T05:31:10;95533.66;;;4.91;91.98
10135;BME280;5107;48.850;8.924;2024-03-02T05:33:38;95537.25;;;4.90;92.48
10135;BME280;5107;48.850;8.924;2024-03-02T05:36:03;95545.38;;;4.87;91.94
10135;BME280;5107;48.850;8.924;2024-03-02T05:38:29;95538.22;;;4.81;91.85
10135;BME280;5107;48.850;8.924;2024-03-02T05:40:55;95547.16;;;4.86;91.46
10135;BME280;5107;48.850;8.924;2024-03-02T05:43:20;95544.91;;;4.91;91.47
10135;BME280;5107;48.850;8.924;2024-03-02T05:45:45;95550.13;;;4.91;91.19
10135;BME280;5107;48.850;8.924;2024-03-02T05:48:10;95553.19;;;4.95;91.32
10135;BME280;5107;48.850;8.924;2024-03-02T05:50:36;95548.31;;;5.00;90.79
10135;BME280;5107;48.850;8.924;2024-03-02T05:53:01;95551.72;;;5.09;90.12
10135;BME280;5107;48.850;8.924;2024-03-02T05:55:26;95549.59;;;5.04;90.13
10135;BME280;5107;48.850;8.924;2024-03-02T05:57:52;95551.91;;;5.07;90.82
10135;BME280;5107;48.850;8.924;2024-03-02T06:00:32;95547.50;;;5.08;90.36
10135;BME280;5107;48.850;8.924;2024-03-02T06:02:58;95547.66;;;5.06;90.75
10135;BME280;5107;48.850;8.924;2024-03-02T06:05:24;95543.25;;;5.07;90.93
10135;BME280;5107;48.850;8.924;2024-03-02T06:07:50;95551.25;;;5.05;91.18
10135;BME280;5107;48.850;8.924;2024-03-02T06:10:15;95550.25;;;5.06;91.01
10135;BME280;5107;48.850;8.924;2024-03-02T06:12:41;95549.59;;;5.12;90.59
10135;BME280;5107;48.850;8.924;2024-03-02T06:15:06;95548.31;;;5.16;90.16
10135;BME280;5107;48.850;8.924;2024-03-02T06:17:32;95546.66;;;5.23;90.06
10135;BME280;5107;48.850;8.924;2024-03-02T06:19:57;95547.94;;;5.27;89.69
10135;BME280;5107;48.850;8.924;2024-03-02T06:22:23;95541.94;;;5.27;89.52
10135;BME280;5107;48.850;8.924;2024-03-02T06:24:50;95545.69;;;5.24;89.86
10135;BME280;5107;48.850;8.924;2024-03-02T06:27:15;95552.38;;;5.19;90.49
10135;BME280;5107;48.850;8.924;2024-03-02T06:29:41;95556.28;;;5.15;90.06
10135;BME280;5107;48.850;8.924;2024-03-02T06:32:07;95553.50;;;5.16;90.01
10135;BME280;5107;48.850;8.924;2024-03-02T06:34:32;95565.22;;;5.20;90.20
10135;BME280;5107;48.850;8.924;2024-03-02T06:36:57;95557.41;;;5.20;90.31
10135;BME280;5107;48.850;8.924;2024-03-02T06:39:22;95571.09;;;5.22;89.44
10135;BME280;5107;48.850;8.924;2024-03-02T06:41:48;95569.00;;;5.26;89.52
10135;BME280;5107;48.850;8.924;2024-03-02T06:44:13;95569.81;;;5.26;89.51
10135;BME280;5107;48.850;8.924;2024-03-02T06:46:39;95566.19;;;5.27;89.64
10135;BME280;5107;48.850;8.924;2024-03-02T06:49:04;95572.88;;;5.30;89.02
10135;BME280;5107;48.850;8.924;2024-03-02T06:51:33;95569.59;;;5.36;88.76
10135;BME280;5107;48.850;8.924;2024-03-02T06:54:02;95561.44;;;5.39;88.32
10135;BME280;5107;48.850;8.924;2024-03-02T06:56:43;95563.75;;;5.42;87.99
10135;BME280;5107;48.850;8.924;2024-03-02T06:59:09;95569.25;;;5.47;87.96
10135;BME280;5107;48.850;8.924;2024-03-02T07:01:40;95565.66;;;5.56;87.68
10135;BME280;5107;48.850;8.924;2024-03-02T07:04:07;95568.19;;;5.72;86.64
10135;BME280;5107;48.850;8.924;2024-03-02T07:06:32;95565.72;;;5.79;86.60
10135;BME280;5107;48.850;8.924;2024-03-02T07:09:49;95575.34;;;5.79;86.20
10135;BME280;5107;48.850;8.924;2024-03-02T07:12:05;95580.31;;;5.65;86.85
10135;BME280;5107;48.850;8.924;2024-03-02T07:14:30;95575.09;;;5.57;86.99
10135;BME280;5107;48.850;8.924;2024-03-02T07:17:48;95579.53;;;5.49;87.36
10135;BME280;5107;48.850;8.924;2024-03-02T07:20:33;95589.97;;;5.49;87.30
10135;BME280;5107;48.850;8.924;2024-03-02T07:22:59;95576.59;;;5.52;87.40
10135;BME280;5107;48.850;8.924;2024-03-02T07:25:35;95573.78;;;5.53;86.72
10135;BME280;5107;48.850;8.924;2024-03-02T07:28:00;95584.22;;;5.53;86.91
10135;BME280;5107;48.850;8.924;2024-03-02T07:30:26;95582.94;;;5.49;86.79
10135;BME280;5107;48.850;8.924;2024-03-02T07:32:54;95582.47;;;5.46;86.94
10135;BME280;5107;48.850;8.924;2024-03-02T07:35:26;95572.84;;;5.46;86.88
10135;BME280;5107;48.850;8.924;2024-03-02T07:37:58;95582.63;;;5.52;86.65
10135;BME280;5107;48.850;8.924;2024-03-02T07:40:31;95579.22;;;5.52;86.57
10135;BME280;5107;48.850;8.924;2024-03-02T07:43:00;95578.69;;;5.56;86.38
10135;BME280;5107;48.850;8.924;2024-03-02T07:45:38;95574.44;;;5.63;86.18
10135;BME280;5107;48.850;8.924;2024-03-02T07:48:07;95589.59;;;5.68;85.91
10135;BME280;5107;48.850;8.924;2024-03-02T07:50:32;95592.00;;;5.69;86.42
10135;BME280;5107;48.850;8.924;2024-03-02T07:53:00;95595.63;;;5.68;85.84
10135;BME280;5107;48.850;8.924;2024-03-02T07:55:47;95592.00;;;5.69;86.00
10135;BME280;5107;48.850;8.924;2024-03-02T07:58:13;95597.41;;;5.76;86.25
10135;BME280;5107;48.850;8.924;2024-03-02T08:00:40;95594.94;;;5.91;85.13
10135;BME280;5107;48.850;8.924;2024-03-02T08:06:40;95603.41;;;6.32;83.87
10135;BME280;5107;48.850;8.924;2024-03-02T08:09:09;95590.72;;;6.52;82.93
10135;BME280;5107;48.850;8.924;2024-03-02T08:11:40;95587.66;;;6.71;82.13
10135;BME280;5107;48.850;8.924;2024-03-02T08:14:18;95583.25;;;7.32;80.00
10135;BME280;5107;48.850;8.924;2024-03-02T08:16:46;95579.00;;;7.31;78.48
10135;BME280;5107;48.850;8.924;2024-03-02T08:19:20;95590.44;;;7.30;78.65
10135;BME280;5107;48.850;8.924;2024-03-02T08:21:54;95581.78;;;7.29;78.60
10135;BME280;5107;48.850;8.924;2024-03-02T08:24:20;95578.69;;;7.11;78.94
10135;BME280;5107;48.850;8.924;2024-03-02T08:26:48;95578.00;;;7.32;78.58
10135;BME280;5107;48.850;8.924;2024-03-02T08:29:14;95577.59;;;7.43;77.60
10135;BME280;5107;48.850;8.924;2024-03-02T08:31:58;95566.69;;;7.83;76.25
10135;BME280;5107;48.850;8.924;2024-03-02T08:34:44;95574.69;;;7.96;75.43
10135;BME280;5107;48.850;8.924;2024-03-02T08:37:11;95577.84;;;8.21;73.82
10135;BME280;5107;48.850;8.924;2024-03-02T08:39:46;95573.63;;;8.35;73.62
10135;BME280;5107;48.850;8.924;2024-03-02T08:42:34;95580.31;;;8.59;72.77
10135;BME280;5107;48.850;8.924;2024-03-02T08:45:00;95570.69;;;8.30;72.59
10135;BME280;5107;48.850;8.924;2024-03-02T08:53:22;95580.53;;;8.79;71.11
10135;BME280;5107;48.850;8.924;2024-03-02T08:55:57;95583.75;;;8.81;70.41
10135;BME280;5107;48.850;8.924;2024-03-02T08:58:23;95582.22;;;8.86;71.07
10135;BME280;5107;48.850;8.924;2024-03-02T09:01:04;95583.81;;;8.87;70.51
10135;BME280;5107;48.850;8.924;2024-03-02T09:03:51;95581.22;;;9.08;69.76
10135;BME280;5107;48.850;8.924;2024-03-02T09:06:28;95590.38;;;8.98;69.82
10135;BME280;5107;48.850;8.924;2024-03-02T09:09:14;95590.84;;;9.50;68.94
10135;BME280;5107;48.850;8.924;2024-03-02T09:11:40;95585.69;;;9.98;67.84
10135;BME280;5107;48.850;8.924;2024-03-02T09:14:05;95588.84;;;10.21;66.98
10135;BME280;5107;48.850;8.924;2024-03-02T09:16:31;95586.69;;;9.97;66.51
10135;BME280;5107;48.850;8.924;2024-03-02T09:18:56;95586.31;;;10.00;66.18
10135;BME280;5107;48.850;8.924;2024-03-02T09:21:22;95588.03;;;10.21;65.85
10135;BME280;5107;48.850;8.924;2024-03-02T09:23:55;95576.34;;;10.23;65.09
10135;BME280;5107;48.850;8.924;2024-03-02T09:26:22;95575.63;;;10.43;64.71
10135;BME280;5107;48.850;8.924;2024-03-02T09:29:06;95557.53;;;11.00;62.18
10135;BME280;5107;48.850;8.924;2024-03-02T09:34:39;95551.47;;;10.93;60.62
10135;BME280;5107;48.850;8.924;2024-03-02T09:37:14;95563.44;;;11.35;60.33
10135;BME280;5107;48.850;8.924;2024-03-02T09:40:22;95562.19;;;11.58;59.63
10135;BME280;5107;48.850;8.924;2024-03-02T09:43:12;95553.47;;;12.41;58.41
10135;BME280;5107;48.850;8.924;2024-03-02T09:45:46;95555.63;;;12.58;57.35
10135;BME280;5107;48.850;8.924;2024-03-02T09:48:26;95552.69;;;12.34;56.91
10135;BME280;5107;48.850;8.924;2024-03-02T09:50:59;95550.34;;;12.58;56.85
10135;BME280;5107;48.850;8.924;2024-03-02T09:53:31;95545.53;;;12.48;57.12
10135;BME280;5107;48.850;8.924;2024-03-02T09:56:20;95545.19;;;13.07;56.33
10135;BME280;5107;48.850;8.924;2024-03-02T09:58:47;95551.63;;;12.48;56.53
10135;BME280;5107;48.850;8.924;2024-03-02T10:01:17;95553.09;;;12.76;56.24
10135;BME280;5107;48.850;8.924;2024-03-02T10:03:53;95546.75;;;13.21;55.46
10135;BME280;5107;48.850;8.924;2024-03-02T10:06:29;95554.94;;;13.81;53.59
10135;BME280;5107;48.850;8.924;2024-03-02T10:08:56;95554.75;;;14.01;52.39
10135;BME280;5107;48.850;8.924;2024-03-02T10:11:25;95555.88;;;14.12;52.12
10135;BME280;5107;48.850;8.924;2024-03-02T10:14:11;95555.72;;;14.43;51.02
10135;BME280;5107;48.850;8.924;2024-03-02T10:16:48;95553.78;;;14.32;51.10
10135;BME280;5107;48.850;8.924;2024-03-02T10:19:34;95543.44;;;14.49;52.12
10135;BME280;5107;48.850;8.924;2024-03-02T10:22:01;95548.72;;;14.49;51.61
10135;BME280;5107;48.850;8.924;2024-03-02T10:24:44;95543.00;;;14.52;51.48
10135;BME280;5107;48.850;8.924;2024-03-02T10:27:22;95541.91;;;14.41;51.96
10135;BME280;5107;48.850;8.924;2024-03-02T10:29:48;95549.19;;;14.46;50.91
10135;BME280;5107;48.850;8.924;2024-03-02T10:32:16;95537.56;;;14.47;51.51
10135;BME280;5107;48.850;8.924;2024-03-02T10:34:44;95545.19;;;14.00;52.05
10135;BME280;5107;48.850;8.924;2024-03-02T10:37:18;95542.19;;;14.33;51.97
10135;BME280;5107;48.850;8.924;2024-03-02T10:39:51;95549.78;;;14.48;50.61
10135;BME280;5107;48.850;8.924;2024-03-02T10:42:19;95546.53;;;14.27;50.07
10135;BME280;5107;48.850;8.924;2024-03-02T10:45:01;95536.97;;;14.26;50.81
10135;BME280;5107;48.850;8.924;2024-03-02T10:47:27;95536.78;;;14.46;50.33
10135;BME280;5107;48.850;8.924;2024-03-02T10:50:00;95535.72;;;14.29;49.66
10135;BME280;5107;48.850;8.924;2024-03-02T10:52:26;95536.75;;;14.28;50.13
10135;BME280;5107;48.850;8.924;2024-03-02T10:54:52;95527.06;;;14.03;50.53
10135;BME280;5107;48.850;8.924;2024-03-02T10:57:20;95526.59;;;14.25;49.94
10135;BME280;5107;48.850;8.924;2024-03-02T10:59:56;95526.28;;;14.33;49.55
10135;BME280;5107;48.850;8.924;2024-03-02T11:02:25;95518.59;;;14.50;48.99
10135;BME280;5107;48.850;8.924;2024-03-02T11:04:57;95513.66;;;14.83;48.07
10135;BME280;5107;48.850;8.924;2024-03-02T11:07:26;95514.97;;;14.62;48.57
10135;BME280;5107;48.850;8.924;2024-03-02T11:10:06;95515.72;;;14.51;48.53
10135;BME280;5107;48.850;8.924;2024-03-02T11:12:47;95516.03;;;14.43;49.71
10135;BME280;5107;48.850;8.924;2024-03-02T11:15:24;95517.88;;;14.42;48.41
10135;BME280;5107;48.850;8.924;2024-03-02T11:17:52;95511.47;;;14.92;47.53
10135;BME280;5107;48.850;8.924;2024-03-02T11:20:24;95507.91;;;15.39;46.55
10135;BME280;5107;48.850;8.924;2024-03-02T11:22:50;95489.53;;;15.49;46.18
10135;BME280;5107;48.850;8.924;2024-03-02T11:25:26;95486.13;;;15.72;45.16
10135;BME280;5107;48.850;8.924;2024-03-02T11:33:05;95476.50;;;16.06;45.43
10135;BME280;5107;48.850;8.924;2024-03-02T11:35:36;95471.56;;;15.75;45.90
10135;BME280;5107;48.850;8.924;2024-03-02T11:38:27;95466.28;;;15.75;45.63
10135;BME280;5107;48.850;8.924;2024-03-02T11:41:07;95465.94;;;15.36;46.88
10135;BME280;5107;48.850;8.924;2024-03-02T11:43:39;95460.19;;;15.63;46.40
10135;BME280;5107;48.850;8.924;2024-03-02T11:46:05;95461.44;;;15.60;47.03
10135;BME280;5107;48.850;8.924;2024-03-02T11:48:42;95456.91;;;15.02;46.74
10135;BME280;5107;48.850;8.924;2024-03-02T11:51:08;95454.16;;;15.09;46.82
10135;BME280;5107;48.850;8.924;2024-03-02T11:53:33;95453.47;;;15.25;45.85
10135;BME280;5107;48.850;8.924;2024-03-02T11:56:01;95454.88;;;15.63;44.84
10135;BME280;5107;48.850;8.924;2024-03-02T11:58:35;95457.91;;;15.54;45.53
10135;BME280;5107;48.850;8.924;2024-03-02T12:01:01;95437.31;;;15.85;44.75
10135;BME280;5107;48.850;8.924;2024-03-02T12:03:27;95441.69;;;15.91;44.44
10135;BME280;5107;48.850;8.924;2024-03-02T12:05:54;95443.75;;;16.29;43.40
10135;BME280;5107;48.850;8.924;2024-03-02T12:08:20;95432.47;;;16.50;43.33
10135;BME280;5107;48.850;8.924;2024-03-02T12:11:00;95431.31;;;16.29;42.99
10135;BME280;5107;48.850;8.924;2024-03-02T12:13:32;95425.06;;;16.24;44.36
10135;BME280;5107;48.850;8.924;2024-03-02T12:15:58;95425.59;;;16.38;44.37
10135;BME280;5107;48.850;8.924;2024-03-02T12:18:27;95426.31;;;16.05;43.52
10135;BME280;5107;48.850;8.924;2024-03-02T12:20:53;95422.06;;;16.49;43.07
10135;BME280;5107;48.850;8.924;2024-03-02T12:23:43;95428.38;;;16.59;43.72
10135;BME280;5107;48.850;8.924;2024-03-02T12:26:08;95425.78;;;16.19;43.23
10135;BME280;5107;48.850;8.924;2024-03-02T12:28:34;95420.09;;;16.27;42.95
10135;BME280;5107;48.850;8.924;2024-03-02T12:31:00;95413.06;;;16.78;42.58
10135;BME280;5107;48.850;8.924;2024-03-02T12:33:31;95413.69;;;17.19;42.52
10135;BME280;5107;48.850;8.924;2024-03-02T12:35:57;95406.34;;;17.26;41.26
10135;BME280;5107;48.850;8.924;2024-03-02T12:38:26;95411.75;;;17.48;41.21
10135;BME280;5107;48.850;8.924;2024-03-02T12:40:52;95410.31;;;17.78;40.21
10135;BME280;5107;48.850;8.924;2024-03-02T12:43:18;95397.50;;;17.75;40.41
10135;BME280;5107;48.850;8.924;2024-03-02T12:46:02;95401.03;;;17.26;40.45
10135;BME280;5107;48.850;8.924;2024-03-02T12:48:49;95388.97;;;17.01;40.97
10135;BME280;5107;48.850;8.924;2024-03-02T12:51:15;95397.19;;;17.00;41.87
10135;BME280;5107;48.850;8.924;2024-03-02T12:53:40;95399.59;;;17.18;41.77
10135;BME280;5107;48.850;8.924;2024-03-02T12:56:08;95395.53;;;17.32;41.48
10135;BME280;5107;48.850;8.924;2024-03-02T12:58:41;95401.38;;;17.29;40.52
10135;BME280;5107;48.850;8.924;2024-03-02T13:01:26;95396.34;;;17.33;39.94
10135;BME280;5107;48.850;8.924;2024-03-02T13:03:52;95396.66;;;17.53;39.83
10135;BME280;5107;48.850;8.924;2024-03-02T13:06:23;95388.75;;;17.03;39.88
10135;BME280;5107;48.850;8.924;2024-03-02T13:08:50;95391.56;;;17.13;40.48
10135;BME280;5107;48.850;8.924;2024-03-02T13:11:16;95383.66;;;17.18;40.91
10135;BME280;5107;48.850;8.924;2024-03-02T13:13:45;95381.94;;;17.67;40.15
10135;BME280;5107;48.850;8.924;2024-03-02T13:16:11;95380.03;;;17.85;40.13
10135;BME280;5107;48.850;8.924;2024-03-02T13:18:38;95387.53;;;17.49;40.36
10135;BME280;5107;48.850;8.924;2024-03-02T13:21:08;95382.13;;;17.22;40.81
10135;BME280;5107;48.850;8.924;2024-03-02T13:23:34;95380.19;;;17.56;40.31
10135;BME280;5107;48.850;8.924;2024-03-02T13:26:06;95380.03;;;17.85;39.74
10135;BME280;5107;48.850;8.924;2024-03-02T13:28:34;95381.50;;;18.19;39.58
10135;BME280;5107;48.850;8.924;2024-03-02T13:31:00;95370.81;;;17.70;40.20
10135;BME280;5107;48.850;8.924;2024-03-02T13:33:28;95369.78;;;17.71;39.56
10135;BME280;5107;48.850;8.924;2024-03-02T13:35:55;95360.94;;;17.11;41.15
10135;BME280;5107;48.850;8.924;2024-03-02T13:38:20;95362.34;;;16.96;41.80
10135;BME280;5107;48.850;8.924;2024-03-02T13:40:48;95362.34;;;16.63;41.34
10135;BME280;5107;48.850;8.924;2024-03-02T13:43:16;95361.53;;;16.34;41.92
10135;BME280;5107;48.850;8.924;2024-03-02T13:45:42;95360.28;;;16.37;42.30
10135;BME280;5107;48.850;8.924;2024-03-02T13:48:10;95361.16;;;16.59;42.08